createdAt,value
2022-09-22T00:01:31.988Z,8.37
2022-09-22T00:04:06.030Z,9.03
2022-09-22T00:06:38.918Z,9.07
2022-09-22T00:09:09.461Z,9.50
2022-09-22T00:11:39.130Z,9.80
2022-09-22T00:14:09.580Z,9.20
2022-09-22T00:16:39.817Z,9.43
2022-09-22T00:19:07.795Z,9.60
2022-09-22T00:21:37.383Z,9.17
2022-09-22T00:24:07.130Z,9.20
2022-09-22T00:26:36.184Z,8.87
2022-09-22T00:29:04.776Z,8.97
2022-09-22T00:31:32.672Z,8.83
2022-09-22T00:34:00.524Z,8.57
2022-09-22T00:36:29.288Z,8.80
2022-09-22T00:38:59.735Z,8.53
2022-09-22T00:41:30.067Z,9.60
2022-09-22T00:44:35.215Z,8.80
2022-09-22T00:47:09.921Z,9.07
2022-09-22T00:49:45.819Z,8.20
2022-09-22T00:52:17.000Z,8.20
2022-09-22T00:54:46.912Z,8.63
2022-09-22T00:57:18.239Z,9.27
2022-09-22T00:59:48.720Z,8.80
2022-09-22T01:02:17.226Z,8.53
2022-09-22T01:04:46.928Z,8.43
2022-09-22T01:07:15.093Z,8.37
2022-09-22T01:09:43.018Z,7.87
2022-09-22T01:12:13.022Z,8.57
2022-09-22T01:14:57.872Z,8.17
2022-09-22T01:17:33.447Z,8.43
2022-09-22T01:20:29.915Z,8.17
2022-09-22T01:23:34.302Z,8.27
2022-09-22T01:26:30.402Z,8.63
2022-09-22T01:29:30.224Z,8.20
2022-09-22T01:32:06.887Z,8.80
2022-09-22T01:34:41.493Z,8.97
2022-09-22T01:37:17.858Z,9.00
2022-09-22T01:39:50.140Z,8.37
2022-09-22T01:42:23.780Z,8.80
2022-09-22T01:44:56.160Z,9.13
2022-09-22T01:47:29.426Z,9.13
2022-09-22T01:50:03.876Z,8.40
2022-09-22T01:52:34.839Z,8.93
2022-09-22T01:55:07.337Z,9.07
2022-09-22T01:57:43.900Z,8.47
2022-09-22T02:00:12.659Z,8.33
2022-09-22T02:02:48.724Z,8.53
2022-09-22T02:05:22.860Z,9.17
2022-09-22T02:07:55.163Z,9.90
2022-09-22T02:10:28.956Z,10.40
2022-09-22T02:12:56.803Z,9.97
2022-09-22T02:15:42.630Z,10.50
2022-09-22T02:18:17.578Z,10.93
2022-09-22T02:20:46.161Z,12.83
2022-09-22T02:23:14.350Z,15.03
2022-09-22T02:25:44.126Z,14.90
2022-09-22T02:28:17.070Z,14.50
2022-09-22T02:30:59.096Z,14.87
2022-09-22T02:33:40.824Z,16.13
2022-09-22T02:36:26.260Z,16.47
2022-09-22T02:39:03.093Z,17.47
2022-09-22T02:41:40.241Z,16.90
2022-09-22T02:44:13.375Z,16.30
2022-09-22T02:46:44.809Z,13.80
2022-09-22T02:49:19.251Z,12.50
2022-09-22T02:51:49.752Z,12.87
2022-09-22T02:54:18.065Z,12.97
2022-09-22T02:56:46.179Z,12.47
2022-09-22T02:59:14.141Z,12.47
2022-09-22T03:01:42.061Z,12.97
2022-09-22T03:04:09.896Z,13.10
2022-09-22T03:06:39.105Z,13.30
2022-09-22T03:09:07.238Z,13.03
2022-09-22T03:11:35.353Z,13.40
2022-09-22T03:14:03.218Z,13.93
2022-09-22T03:16:31.176Z,12.77
2022-09-22T03:18:59.206Z,12.73
2022-09-22T03:21:27.111Z,13.63
2022-09-22T03:23:56.471Z,12.57
2022-09-22T03:26:24.319Z,13.63
2022-09-22T03:28:53.033Z,12.60
2022-09-22T03:31:20.912Z,11.87
2022-09-22T03:33:52.598Z,12.07
2022-09-22T03:36:20.747Z,12.73
2022-09-22T03:38:48.664Z,11.80
2022-09-22T03:41:17.837Z,13.53
2022-09-22T03:43:45.694Z,12.10
2022-09-22T03:46:14.385Z,11.90
2022-09-22T03:48:45.106Z,11.73
2022-09-22T03:51:13.494Z,11.43
2022-09-22T03:53:41.336Z,11.77
2022-09-22T03:56:11.698Z,11.63
2022-09-22T03:58:41.529Z,11.63
2022-09-22T04:01:11.429Z,10.93
2022-09-22T04:03:39.778Z,11.60
2022-09-22T04:06:08.427Z,11.63
2022-09-22T04:08:36.260Z,11.70
2022-09-22T04:11:04.277Z,12.10
2022-09-22T04:13:32.643Z,12.40
2022-09-22T04:16:02.280Z,12.80
2022-09-22T04:18:30.120Z,12.83
2022-09-22T04:20:59.095Z,11.90
2022-09-22T04:23:27.808Z,12.30
2022-09-22T04:25:55.728Z,12.17
2022-09-22T04:28:23.544Z,11.97
2022-09-22T04:30:51.613Z,11.00
2022-09-22T04:33:21.331Z,10.83
2022-09-22T04:35:49.844Z,10.23
2022-09-22T04:38:18.670Z,10.83
2022-09-22T04:40:47.093Z,9.40
2022-09-22T04:43:14.900Z,9.30
2022-09-22T04:45:45.133Z,9.77
2022-09-22T04:48:13.095Z,10.00
2022-09-22T04:50:47.151Z,9.90
2022-09-22T04:53:16.281Z,10.37
2022-09-22T04:55:44.094Z,10.20
2022-09-22T04:58:11.982Z,13.53
2022-09-22T05:00:39.792Z,11.93
2022-09-22T05:03:09.699Z,12.17
2022-09-22T05:05:38.535Z,11.77
2022-09-22T05:08:07.796Z,11.40
2022-09-22T05:10:36.857Z,12.10
2022-09-22T05:13:05.834Z,12.00
2022-09-22T05:15:34.726Z,12.23
2022-09-22T05:18:02.805Z,12.37
2022-09-22T05:20:30.632Z,10.83
2022-09-22T05:22:58.557Z,9.40
2022-09-22T05:25:28.523Z,9.00
2022-09-22T05:27:57.432Z,9.00
2022-09-22T05:30:27.365Z,8.57
2022-09-22T05:32:55.204Z,8.63
2022-09-22T05:35:24.964Z,8.33
2022-09-22T05:37:53.898Z,8.63
2022-09-22T05:40:24.087Z,7.90
2022-09-22T05:42:54.560Z,8.30
2022-09-22T05:45:23.035Z,8.80
2022-09-22T05:47:51.292Z,9.07
2022-09-22T05:50:20.467Z,9.27
2022-09-22T05:52:48.608Z,10.67
2022-09-22T05:55:16.730Z,8.07
2022-09-22T05:57:44.713Z,7.20
2022-09-22T06:00:14.692Z,6.40
2022-09-22T06:02:45.199Z,6.90
2022-09-22T06:05:15.213Z,7.80
2022-09-22T06:07:43.806Z,10.23
2022-09-22T06:10:12.752Z,12.23
2022-09-22T06:12:40.899Z,11.80
2022-09-22T06:15:09.535Z,11.10
2022-09-22T06:17:38.728Z,11.57
2022-09-22T06:20:08.546Z,10.37
2022-09-22T06:22:36.437Z,10.60
2022-09-22T06:25:04.967Z,11.97
2022-09-22T06:27:33.182Z,12.23
2022-09-22T06:30:01.004Z,12.73
2022-09-22T06:32:28.833Z,10.47
2022-09-22T06:35:01.211Z,10.77
2022-09-22T06:37:29.090Z,10.43
2022-09-22T06:39:56.919Z,11.13
2022-09-22T06:42:24.876Z,19.13
2022-09-22T06:44:53.509Z,9.47
2022-09-22T06:47:21.317Z,8.50
2022-09-22T06:49:49.177Z,7.97
2022-09-22T06:52:18.385Z,8.30
2022-09-22T06:54:46.226Z,8.63
2022-09-22T06:57:14.088Z,8.23
2022-09-22T06:59:41.931Z,7.77
2022-09-22T07:02:11.020Z,7.20
2022-09-22T07:04:38.878Z,6.90
2022-09-22T07:07:06.700Z,7.00
2022-09-22T07:09:35.898Z,8.17
2022-09-22T07:12:03.775Z,7.43
2022-09-22T07:14:32.686Z,6.77
2022-09-22T07:17:01.303Z,6.78
2022-09-22T07:19:29.146Z,7.32
2022-09-22T07:21:57.395Z,6.97
2022-09-22T07:24:27.872Z,7.68
2022-09-22T07:26:57.066Z,6.80
2022-09-22T07:29:24.884Z,7.03
2022-09-22T07:31:53.417Z,6.80
2022-09-22T07:34:21.268Z,7.63
2022-09-22T07:36:50.031Z,6.50
2022-09-22T07:39:17.878Z,6.57
2022-09-22T07:41:47.949Z,6.55
2022-09-22T07:44:44.348Z,6.72
2022-09-22T07:47:12.790Z,6.90
2022-09-22T07:49:40.620Z,7.30
2022-09-22T07:52:08.461Z,6.65
2022-09-22T07:54:37.300Z,6.20
2022-09-22T07:57:06.725Z,6.13
2022-09-22T07:59:36.052Z,5.95
2022-09-22T08:02:03.956Z,5.38
2022-09-22T08:04:33.582Z,5.13
2022-09-22T08:07:01.421Z,5.68
2022-09-22T08:09:30.256Z,5.07
2022-09-22T08:11:58.081Z,5.30
2022-09-22T08:14:25.974Z,5.30
2022-09-22T08:16:55.252Z,5.07
2022-09-22T08:19:24.814Z,4.00
2022-09-22T08:21:54.355Z,4.05
2022-09-22T08:24:23.469Z,4.30
2022-09-22T08:26:55.745Z,4.80
2022-09-22T08:29:24.406Z,4.47
2022-09-22T08:31:52.347Z,5.45
2022-09-22T08:34:22.425Z,4.80
2022-09-22T08:36:50.369Z,5.75
2022-09-22T08:39:19.277Z,4.68
2022-09-22T08:42:01.224Z,3.70
2022-09-22T08:44:33.366Z,2.80
2022-09-22T08:47:03.182Z,3.63
2022-09-22T08:49:56.953Z,3.45
2022-09-22T08:52:29.831Z,3.40
2022-09-22T08:54:59.612Z,3.30
2022-09-22T08:57:41.158Z,3.20
2022-09-22T09:00:14.667Z,3.40
2022-09-22T09:02:46.027Z,3.92
2022-09-22T09:05:48.419Z,4.47
2022-09-22T09:08:37.117Z,3.67
2022-09-22T09:11:20.132Z,3.65
2022-09-22T09:14:04.784Z,4.05
2022-09-22T09:16:45.196Z,2.97
2022-09-22T09:19:18.721Z,2.90
2022-09-22T09:21:51.807Z,2.97
2022-09-22T09:27:22.280Z,3.25
2022-09-22T09:30:00.636Z,3.28
2022-09-22T09:32:34.521Z,3.10
2022-09-22T09:37:37.752Z,2.55
2022-09-22T09:40:08.867Z,2.30
2022-09-22T09:42:37.039Z,3.30
2022-09-22T09:45:07.070Z,5.47
2022-09-22T09:47:59.052Z,2.58
2022-09-22T09:50:32.240Z,3.10
2022-09-22T09:53:01.967Z,2.78
2022-09-22T09:55:29.796Z,2.22
2022-09-22T09:58:07.072Z,1.98
2022-09-22T10:00:35.045Z,4.30
2022-09-22T10:03:13.688Z,3.35
2022-09-22T10:05:41.519Z,3.15
2022-09-22T10:08:20.196Z,2.40
2022-09-22T10:10:49.166Z,2.42
2022-09-22T10:13:24.384Z,2.85
2022-09-22T10:16:17.125Z,2.20
2022-09-22T10:18:44.983Z,2.00
2022-09-22T10:21:16.413Z,2.20
2022-09-22T10:23:47.499Z,3.00
2022-09-22T10:26:18.070Z,2.92
2022-09-22T10:28:50.844Z,2.53
2022-09-22T10:31:22.270Z,3.00
2022-09-22T10:33:58.339Z,2.85
2022-09-22T10:36:29.036Z,2.75
2022-09-22T10:38:59.803Z,2.90
2022-09-22T10:41:35.374Z,3.78
2022-09-22T10:44:35.041Z,3.40
2022-09-22T10:47:20.021Z,3.53
2022-09-22T10:50:24.676Z,3.00
2022-09-22T10:52:57.258Z,3.03
2022-09-22T10:55:31.582Z,2.97
2022-09-22T10:58:21.019Z,4.28
2022-09-22T11:00:48.848Z,3.70
2022-09-22T11:03:29.536Z,3.03
2022-09-22T11:06:28.550Z,2.78
2022-09-22T11:09:19.579Z,2.30
2022-09-22T11:12:15.341Z,2.60
2022-09-22T11:14:54.724Z,2.90
2022-09-22T11:17:38.591Z,3.60
2022-09-22T11:20:26.167Z,2.30
2022-09-22T11:23:18.164Z,2.65
2022-09-22T11:25:58.699Z,2.83
2022-09-22T11:28:44.725Z,2.55
2022-09-22T11:31:20.866Z,3.00
2022-09-22T11:34:24.101Z,2.50
2022-09-22T11:37:01.064Z,2.92
2022-09-22T11:39:43.145Z,2.70
2022-09-22T11:42:25.079Z,4.72
2022-09-22T11:45:06.687Z,3.42
2022-09-22T11:47:56.863Z,3.00
2022-09-22T11:50:36.377Z,3.35
2022-09-22T11:53:24.306Z,3.47
2022-09-22T11:56:06.344Z,3.25
2022-09-22T11:58:40.055Z,3.13
2022-09-22T12:01:13.493Z,2.97
2022-09-22T12:03:46.217Z,2.90
2022-09-22T12:06:18.836Z,2.70
2022-09-22T12:11:28.260Z,2.45
2022-09-22T12:13:59.035Z,2.30
2022-09-22T12:16:41.799Z,3.67
2022-09-22T12:19:24.444Z,2.83
2022-09-22T12:22:00.347Z,2.20
2022-09-22T12:24:28.265Z,3.25
2022-09-22T12:26:56.272Z,2.40
2022-09-22T12:29:30.456Z,3.75
2022-09-22T12:32:00.687Z,2.40
2022-09-22T12:34:32.818Z,2.67
2022-09-22T12:37:11.713Z,2.40
2022-09-22T12:39:43.123Z,2.47
2022-09-22T12:42:21.701Z,2.10
2022-09-22T12:44:54.755Z,1.90
2022-09-22T12:47:30.325Z,2.40
2022-09-22T12:50:00.179Z,2.13
2022-09-22T12:53:03.520Z,2.00
2022-09-22T12:55:38.276Z,2.90
2022-09-22T12:58:44.353Z,2.13
2022-09-22T13:01:39.326Z,2.75
2022-09-22T13:04:14.819Z,1.80
2022-09-22T13:06:57.204Z,2.07
2022-09-22T13:09:28.481Z,1.80
2022-09-22T13:12:27.020Z,1.93
2022-09-22T13:15:12.309Z,5.07
2022-09-22T13:17:42.387Z,1.70
2022-09-22T13:20:20.823Z,1.70
2022-09-22T13:22:48.948Z,1.80
2022-09-22T13:25:23.435Z,2.03
2022-09-22T13:28:10.644Z,2.30
2022-09-22T13:30:40.320Z,2.17
2022-09-22T13:33:19.126Z,2.10
2022-09-22T13:35:51.837Z,2.30
2022-09-22T13:38:19.694Z,2.20
2022-09-22T13:40:50.934Z,2.10
2022-09-22T13:43:27.314Z,2.53
2022-09-22T13:45:56.591Z,2.40
2022-09-22T13:48:24.908Z,2.67
2022-09-22T13:50:57.266Z,3.17
2022-09-22T13:53:25.256Z,2.37
2022-09-22T13:55:53.740Z,2.47
2022-09-22T13:58:26.192Z,2.20
2022-09-22T14:01:14.348Z,2.30
2022-09-22T14:03:43.619Z,2.33
2022-09-22T14:06:15.407Z,1.93
2022-09-22T14:08:45.710Z,2.70
2022-09-22T14:11:16.878Z,2.10
2022-09-22T14:13:57.684Z,2.23
2022-09-22T14:16:29.868Z,2.37
2022-09-22T14:19:04.418Z,2.13
2022-09-22T14:21:41.451Z,2.33
2022-09-22T14:24:13.731Z,2.60
2022-09-22T14:26:47.374Z,2.70
2022-09-22T14:29:20.362Z,2.20
2022-09-22T14:31:53.669Z,2.60
2022-09-22T14:34:25.637Z,2.50
2022-09-22T14:36:56.256Z,2.47
2022-09-22T14:39:31.784Z,2.80
2022-09-22T14:42:08.966Z,2.70
2022-09-22T14:44:44.787Z,3.10
2022-09-22T14:47:25.764Z,3.23
2022-09-22T14:50:20.496Z,3.20
2022-09-22T14:52:56.671Z,2.97
2022-09-22T14:55:31.905Z,2.50
2022-09-22T14:58:04.984Z,2.57
2022-09-22T15:00:50.747Z,3.00
2022-09-22T15:03:24.769Z,3.07
2022-09-22T15:05:52.724Z,3.33
2022-09-22T15:08:27.855Z,3.67
2022-09-22T15:10:57.819Z,4.30
2022-09-22T15:13:31.437Z,5.30
2022-09-22T15:15:59.824Z,3.33
2022-09-22T15:18:30.791Z,3.67
2022-09-22T15:21:04.004Z,3.43
2022-09-22T15:23:41.111Z,2.87
2022-09-22T15:26:15.994Z,3.17
2022-09-22T15:28:45.134Z,3.33
2022-09-22T15:31:13.973Z,3.40
2022-09-22T15:33:41.855Z,3.10
2022-09-22T15:36:13.866Z,3.60
2022-09-22T15:38:43.819Z,4.00
2022-09-22T15:41:15.748Z,3.67
2022-09-22T15:43:44.715Z,3.80
2022-09-22T15:46:28.590Z,3.73
2022-09-22T15:49:00.835Z,4.63
2022-09-22T15:51:30.414Z,4.40
2022-09-22T15:53:59.850Z,4.00
2022-09-22T15:56:30.089Z,4.13
2022-09-22T15:59:01.147Z,4.30
2022-09-22T16:01:29.516Z,4.60
2022-09-22T16:04:00.292Z,5.37
2022-09-22T16:06:28.681Z,6.03
2022-09-22T16:08:58.457Z,5.23
2022-09-22T16:11:29.785Z,5.90
2022-09-22T16:14:00.622Z,4.83
2022-09-22T16:16:29.501Z,5.23
2022-09-22T16:18:57.529Z,4.80
2022-09-22T16:21:27.324Z,5.60
2022-09-22T16:23:59.420Z,5.57
2022-09-22T16:26:31.781Z,5.03
2022-09-22T16:29:00.551Z,5.50
2022-09-22T16:31:28.701Z,5.30
2022-09-22T16:33:58.292Z,5.07
2022-09-22T16:36:28.496Z,5.03
2022-09-22T16:38:57.494Z,5.27
2022-09-22T16:41:26.745Z,5.27
2022-09-22T16:43:57.407Z,5.13
2022-09-22T16:46:30.318Z,5.10
2022-09-22T16:49:00.566Z,4.90
2022-09-22T16:51:29.248Z,5.50
2022-09-22T16:53:57.464Z,5.30
2022-09-22T16:56:27.172Z,5.60
2022-09-22T16:58:56.744Z,5.53
2022-09-22T17:01:25.104Z,5.63
2022-09-22T17:03:53.803Z,5.70
2022-09-22T17:06:24.538Z,6.13
2022-09-22T17:08:52.988Z,5.70
2022-09-22T17:11:23.399Z,5.90
2022-09-22T17:13:51.360Z,6.27
2022-09-22T17:16:23.057Z,5.77
2022-09-22T17:18:52.173Z,6.30
2022-09-22T17:21:22.616Z,6.17
2022-09-22T17:23:51.936Z,5.83
2022-09-22T17:26:21.937Z,6.00
2022-09-22T17:28:52.736Z,6.30
2022-09-22T17:31:23.580Z,6.33
2022-09-22T17:33:52.454Z,6.00
2022-09-22T17:36:23.944Z,6.23
2022-09-22T17:38:53.419Z,7.00
2022-09-22T17:41:23.279Z,6.60
2022-09-22T17:43:53.206Z,7.10
2022-09-22T17:46:23.537Z,7.67
2022-09-22T17:49:08.899Z,6.87
2022-09-22T17:51:52.337Z,6.90
2022-09-22T17:54:40.750Z,6.83
2022-09-22T17:57:10.037Z,7.43
2022-09-22T17:59:40.081Z,7.00
2022-09-22T18:02:11.123Z,6.30
2022-09-22T18:04:39.567Z,6.90
2022-09-22T18:07:09.662Z,6.87
2022-09-22T18:09:41.928Z,7.10
2022-09-22T18:12:12.956Z,7.10
2022-09-22T18:14:44.220Z,6.77
2022-09-22T18:17:15.216Z,7.40
2022-09-22T18:19:44.203Z,7.77
2022-09-22T18:22:16.732Z,7.43
2022-09-22T18:24:45.247Z,7.20
2022-09-22T18:27:13.280Z,7.70
2022-09-22T18:29:41.140Z,7.77
2022-09-22T18:32:09.089Z,8.70
2022-09-22T18:34:39.277Z,8.03
2022-09-22T18:37:08.641Z,7.20
2022-09-22T18:39:36.493Z,7.20
2022-09-22T18:42:04.916Z,6.80
2022-09-22T18:44:33.873Z,7.20
2022-09-22T18:47:03.271Z,6.80
2022-09-22T18:49:33.311Z,9.80
2022-09-22T18:52:02.613Z,7.10
2022-09-22T18:54:31.416Z,7.43
2022-09-22T18:56:59.508Z,7.37
2022-09-22T18:59:28.370Z,6.77
2022-09-22T19:01:56.463Z,6.83
2022-09-22T19:04:26.915Z,7.03
2022-09-22T19:07:14.141Z,6.70
2022-09-22T19:09:44.520Z,6.93
2022-09-22T19:12:13.056Z,7.23
2022-09-22T19:14:41.831Z,6.43
2022-09-22T19:17:11.634Z,7.13
2022-09-22T19:19:42.221Z,6.63
2022-09-22T19:22:12.162Z,6.87
2022-09-22T19:24:41.748Z,7.43
2022-09-22T19:27:12.049Z,7.10
2022-09-22T19:29:39.872Z,7.80
2022-09-22T19:32:08.063Z,7.10
2022-09-22T19:34:35.907Z,7.40
2022-09-22T19:37:04.104Z,10.63
2022-09-22T19:39:32.302Z,8.33
2022-09-22T19:42:00.452Z,8.97
2022-09-22T19:44:32.381Z,9.17
2022-09-22T19:47:01.371Z,8.93
2022-09-22T19:49:29.979Z,8.47
2022-09-22T19:51:57.848Z,8.13
2022-09-22T19:54:25.696Z,8.10
2022-09-22T19:56:53.532Z,13.47
2022-09-22T19:59:21.385Z,10.93
2022-09-22T20:01:51.084Z,8.00
2022-09-22T20:04:20.577Z,8.70
2022-09-22T20:06:48.892Z,8.20
2022-09-22T20:09:16.856Z,7.93
2022-09-22T20:11:47.521Z,8.80
2022-09-22T20:14:22.641Z,7.90
2022-09-22T20:16:54.323Z,8.30
2022-09-22T20:19:23.439Z,8.53
2022-09-22T20:21:52.722Z,8.50
2022-09-22T20:24:22.452Z,7.57
2022-09-22T20:26:50.951Z,7.50
2022-09-22T20:29:20.612Z,7.90
2022-09-22T20:31:48.611Z,7.37
2022-09-22T20:34:20.013Z,6.63
2022-09-22T20:36:47.989Z,7.03
2022-09-22T20:39:16.093Z,7.47
2022-09-22T20:41:44.859Z,7.37
2022-09-22T20:44:14.816Z,6.77
2022-09-22T20:46:43.860Z,6.57
2022-09-22T20:49:14.110Z,7.03
2022-09-22T20:51:43.636Z,7.20
2022-09-22T20:54:11.584Z,7.53
2022-09-22T20:56:42.645Z,7.27
2022-09-22T20:59:11.127Z,8.23
2022-09-22T21:01:39.188Z,8.17
2022-09-22T21:04:07.455Z,9.13
2022-09-22T21:06:35.550Z,9.60
2022-09-22T21:09:22.346Z,9.83
2022-09-22T21:11:50.321Z,9.27
2022-09-22T21:14:18.292Z,9.73
2022-09-22T21:16:50.292Z,9.20
2022-09-22T21:19:18.591Z,8.90
2022-09-22T21:21:46.542Z,8.20
2022-09-22T21:24:17.167Z,8.47
2022-09-22T21:26:45.251Z,7.80
2022-09-22T21:29:13.248Z,8.63
2022-09-22T21:31:41.207Z,7.87
2022-09-22T21:34:09.613Z,7.60
2022-09-22T21:36:37.638Z,7.20
2022-09-22T21:39:05.820Z,7.20
2022-09-22T21:41:35.380Z,7.63
2022-09-22T21:44:03.891Z,9.57
2022-09-22T21:46:32.845Z,10.50
2022-09-22T21:49:03.333Z,9.63
2022-09-22T21:51:34.254Z,9.03
2022-09-22T21:54:03.029Z,8.40
2022-09-22T21:56:32.923Z,9.63
2022-09-22T21:59:03.283Z,9.33
2022-09-22T22:01:33.521Z,8.83
2022-09-22T22:04:03.013Z,10.10
2022-09-22T22:06:32.595Z,10.07
2022-09-22T22:09:04.277Z,9.37
2022-09-22T22:11:33.714Z,10.43
2022-09-22T22:14:04.940Z,9.53
2022-09-22T22:16:34.751Z,10.97
2022-09-22T22:19:03.130Z,10.63
2022-09-22T22:21:31.971Z,10.27
2022-09-22T22:24:27.974Z,10.20
2022-09-22T22:26:58.019Z,10.47
2022-09-22T22:29:31.633Z,9.97
2022-09-22T22:31:59.731Z,9.83
2022-09-22T22:34:27.771Z,9.90
2022-09-22T22:36:58.018Z,9.80
2022-09-22T22:39:26.074Z,9.53
2022-09-22T22:41:55.310Z,8.70
2022-09-22T22:44:23.411Z,8.43
2022-09-22T22:46:52.576Z,9.00
2022-09-22T22:49:21.269Z,8.90
2022-09-22T22:51:49.982Z,8.60
2022-09-22T22:54:17.868Z,8.67
2022-09-22T22:56:49.029Z,9.40
2022-09-22T22:59:19.277Z,9.20
2022-09-22T23:01:47.216Z,8.60
2022-09-22T23:04:17.491Z,8.30
2022-09-22T23:06:45.327Z,8.73
2022-09-22T23:09:15.034Z,8.40
2022-09-22T23:11:44.163Z,8.10
2022-09-22T23:14:15.660Z,7.97
2022-09-22T23:16:44.589Z,8.10
2022-09-22T23:19:14.118Z,8.53
2022-09-22T23:21:44.977Z,8.13
2022-09-22T23:24:16.388Z,9.07
2022-09-22T23:26:44.656Z,8.10
2022-09-22T23:29:12.679Z,7.70
2022-09-22T23:31:40.529Z,8.80
2022-09-22T23:34:08.382Z,8.97
2022-09-22T23:36:36.211Z,8.03
2022-09-22T23:39:06.004Z,8.43
2022-09-22T23:41:36.274Z,8.23
2022-09-22T23:44:06.292Z,9.43
2022-09-22T23:46:34.210Z,9.03
2022-09-22T23:49:02.380Z,10.07
2022-09-22T23:51:30.444Z,10.10
2022-09-22T23:53:58.508Z,10.17
2022-09-22T23:56:27.728Z,10.57
2022-09-22T23:58:55.741Z,10.37
